Metar Cercanos

 

LEPA - Palma De Mallorc, Spain
Distance from station: ONO 38km
Actualización: Thu, 25-Feb-2021 5:00pm CET
Few Clouds
Few Clouds
 Viento del OSO
Viento: OSO 13 km/h
Temperatura: 16°C
Rocío: 10°C
Humedad: 68%
Barómetro: 1030 hPa
Clouds: Few Clouds
Visibility: 10 km
Cloud details: Few Clouds 914 m
2021/02/25 16:00 LEPA 251600Z 24007KT 9999 FEW030 16/10 Q1030 NOSIG
LEMH - Mahon/Menorca Is, Spain
Distance from station: ENE 105km
Actualización: Thu, 25-Feb-2021 5:00pm CET
Few Clouds
Few Clouds
 Viento del ESE
Viento: ESE 11 km/h
Temperatura: 14°C
Rocío: 8°C
Humedad: 67%
Barómetro: 1030 hPa
Clouds: Few Clouds
Visibility: 10 km
Cloud details: Few Clouds 762 m
2021/02/25 16:00 LEMH 251600Z 11006KT 9999 FEW025 14/08 Q1030
 
LEIB - Ibiza/Es Codola, Spain
Distance from station: OSO 165km
Actualización: Thu, 25-Feb-2021 5:00pm CET
Few Clouds
Few Clouds
 Viento del E
Viento: E 17 km/h
Temperatura: 16°C
Rocío: 10°C
Humedad: 68%
Barómetro: 1029 hPa
Clouds: Few Clouds
Visibility: 10 km
Cloud details: Few Clouds 640 m
2021/02/25 16:00 LEIB 251600Z 08009KT 050V110 9999 FEW021 16/10 Q1029 NOSIG
LEBL - Barcelona Airpor, Spain
Distance from station: NNO 225km
Actualización: Thu, 25-Feb-2021 5:00pm CET
Despejado
Despejado
 Viento del SO
Viento: SO 22 km/h
Temperatura: 14°C
Rocío: 11°C
Humedad: 82%
Barómetro: 1029 hPa
Resumen: Despejado
Visibility: greater than 10 km
2021/02/25 16:00 LEBL 251600Z 22012KT CAVOK 14/11 Q1029 NOSIG
 
LEVC - Valencia (civ/Mi, Spain
Distance from station: NO 188km
Actualización: Thu, 25-Feb-2021 5:00pm CET
Parcialmente nuboso
Parcialmente nuboso
 Viento del SE
Viento: SE 13 km/h
Temperatura: 16°C
Rocío: 11°C
Humedad: 72%
Barómetro: 1029 hPa
Clouds: Parcialmente nuboso
Visibility: 10 km
Cloud details: Parcialmente nuboso 914 m
2021/02/25 16:00 LEVC 251600Z 13007KT 100V160 9999 SCT030 16/11 Q1029 NOSIG
LEGE - Gerona/Costa Bra, Spain
Distance from station: N 276km
Actualización: Thu, 25-Feb-2021 5:00pm CET
Parcialmente nuboso
Parcialmente nuboso
 Viento del S
Viento: S 20 km/h
Temperatura: 14°C
Rocío: 10°C
Humedad: 77%
Barómetro: 1029 hPa
Clouds: Parcialmente nuboso
Visibility: 10 km
Cloud details: Parcialmente nuboso 914 m
2021/02/25 16:00 LEGE 251600Z 17011KT 150V210 9999 SCT030 14/10 Q1029
 
LEAL - Alicante/El Alte, Spain
Distance from station: OSO 344km
Actualización: Thu, 25-Feb-2021 5:00pm CET
Parcialmente nuboso
Parcialmente nuboso
 Viento del ENE
Viento: ENE 19 km/h
Temperatura: 15°C
Rocío: 11°C
Humedad: 77%
Barómetro: 1029 hPa
Clouds: Parcialmente nuboso
Visibility: 10 km
Cloud details: Few Clouds 457 m
Parcialmente nuboso 701 m
2021/02/25 16:00 LEAL 251600Z 07010KT 9999 FEW015 SCT023 15/11 Q1029 NOSIG
LEAM - Almeria Airport, Spain
Distance from station: SSO 56km
Actualización: Thu, 25-Feb-2021 5:00pm CET
Few Clouds
Few Clouds
 Viento del ENE
Viento: ENE 37 km/h
Temperatura: 18°C
Rocío: 11°C
Humedad: 64%
Barómetro: 1025 hPa
Clouds: Few Clouds
Visibility: 10 km
Cloud details: Few Clouds 914 m
2021/02/25 16:00 LEAM 251600Z 07020KT 9999 FEW030 18/11 Q1025
 
LEZG - Zaragoza (mil/Ci, Spain
Distance from station: NO 431km
Actualización: Thu, 25-Feb-2021 5:00pm CET
Few Clouds
Few Clouds
 Viento del ESE
Viento: ESE 9 km/h
Temperatura: 16°C
Rocío: 7°C
Humedad: 55%
Barómetro: 1029 hPa
Clouds: Few Clouds
Visibility: 10 km
Cloud details: Few Clouds 914 m
2021/02/25 16:00 LEZG 251600Z 12005KT 070V180 9999 FEW030 16/07 Q1029
LEMD - Madrid/Barajas, Spain
Distance from station: ONO 234km
Actualización: Thu, 25-Feb-2021 5:00pm CET
Few Clouds
Few Clouds
 Viento del N
Viento: N 9 km/h
Temperatura: 13°C
Rocío: 7°C
Humedad: 67%
Barómetro: 1027 hPa
Clouds: Few Clouds
Visibility: 10 km
Cloud details: Few Clouds 2134 m
2021/02/25 16:00 LEMD 251600Z 35005KT 320V040 9999 FEW070 13/07 Q1027 NOSIG
 
LEGR - Granada Airport, Spain
Distance from station: OSO 62km
Actualización: Thu, 25-Feb-2021 5:00pm CET
Few Clouds
Few Clouds
 Viento del SSE
Viento: SSE 20 km/h
Temperatura: 18°C
Rocío: 5°C
Humedad: 43%
Barómetro: 1023 hPa
Clouds: Few Clouds
Visibility: 10 km
Cloud details: Few Clouds 2438 m
2021/02/25 16:00 LEGR 251600Z 16011KT 120V190 9999 FEW080 18/05 Q1023
LEMG - Malaga (civ/Mil), Spain
Distance from station: OSO 227km
Actualización: Thu, 25-Feb-2021 5:00pm CET
Muy nuboso
Muy nuboso
 Viento del SSE
Viento: SSE 7 km/h
Temperatura: 16°C
Rocío: 13°C
Humedad: 83%
Barómetro: 1025 hPa
Clouds: Muy nuboso
Visibility: 9 km
Cloud details: Few Clouds 427 m
Muy nuboso 610 m
2021/02/25 16:00 LEMG 251600Z 15004KT 110V190 9000 FEW014 BKN020 16/13 Q1025 NOSIG
 
LEZL - Sevilla (civ/Mil, Spain
Distance from station: S 318km
Actualización: Thu, 25-Feb-2021 5:00pm CET
Parcialmente nuboso
Parcialmente nuboso
 Viento del NNE
Viento: NNE 7 km/h
Temperatura: 19°C
Rocío: 11°C
Humedad: 60%
Barómetro: 1024 hPa
Clouds: Parcialmente nuboso
Visibility: 10 km
Cloud details: Parcialmente nuboso 1280 m
2021/02/25 16:00 LEZL 251600Z 03004KT 350V070 9999 SCT042 19/11 Q1024 NOSIG
LEVT - Vitoria, Spain
Distance from station: NO 226km
Actualización: Thu, 25-Feb-2021 5:00pm CET
Few Clouds
Few Clouds
 Viento del calm
Viento: Calma
Temperatura: 13°C
Rocío: 7°C
Humedad: 67%
Barómetro: 1029 hPa
Clouds: Few Clouds
Visibility: 10 km
Cloud details: Few Clouds 884 m
2021/02/25 16:00 LEVT 251600Z 00000KT 9999 FEW029 13/07 Q1029
 
LEBB - Bilbao/Sondica, Spain
Distance from station: NNO 235km
Actualización: Thu, 25-Feb-2021 5:00pm CET
Parcialmente nuboso
Parcialmente nuboso
 Viento del ONO
Viento: ONO 15 km/h
Temperatura: 14°C
Rocío: 11°C
Humedad: 82%
Barómetro: 1029 hPa
Clouds: Parcialmente nuboso
Visibility: 10 km
Cloud details: Parcialmente nuboso 610 m
2021/02/25 16:00 LEBB 251600Z 29008KT 9999 SCT020 14/11 Q1029 NOSIG
LESO - San Sebastian/Fu, Spain
Distance from station: N 231km
Actualización: Thu, 25-Feb-2021 5:00pm CET
Muy nuboso
Muy nuboso
 Viento del NNE
Viento: NNE 7 km/h
Temperatura: 13°C
Rocío: 11°C
Humedad: 88%
Barómetro: 1029 hPa
Clouds: Muy nuboso
Visibility: 10 km
Cloud details: Few Clouds 305 m
Muy nuboso 518 m
2021/02/25 16:00 LESO 251600Z 03004KT 360V060 9999 FEW010 BKN017 13/11 Q1029
 
LEVD - Valladolid(Mil/C, Spain
Distance from station: ONO 239km
Actualización: Thu, 25-Feb-2021 5:00pm CET
Muy nuboso
Muy nuboso
 Viento del N
Viento: N 6 km/h
Temperatura: 12°C
Rocío: 5°C
Humedad: 63%
Barómetro: 1026 hPa
Clouds: Muy nuboso
Visibility: 10 km
Cloud details: Muy nuboso 975 m
2021/02/25 16:00 LEVD 251600Z 35003KT 290V030 9999 BKN032 12/05 Q1026
LESA - Salamanca (civ/M, Spain
Distance from station: ONO 349km
Actualización: Thu, 25-Feb-2021 5:00pm CET
Parcialmente nuboso
Parcialmente nuboso
 Viento del NE
Viento: NE 11 km/h
Temperatura: 14°C
Rocío: 5°C
Humedad: 55%
Barómetro: 1026 hPa
Clouds: Parcialmente nuboso
Visibility: 10 km
Cloud details: Parcialmente nuboso 1433 m
2021/02/25 16:00 LESA 251600Z 04006KT 350V070 9999 SCT047 14/05 Q1026
 
LEXJ - Santander/Paraya, Spain
Distance from station: NNO 247km
Actualización: Thu, 25-Feb-2021 5:00pm CET
Cubierto
Cubierto
 Viento del ONO
Viento: ONO 11 km/h
Temperatura: 13°C
Rocío: 12°C
Humedad: 94%
Barómetro: 1029 hPa
Clouds: Cubierto
Visibility: 10 km
Cloud details: Parcialmente nuboso 274 m
Cubierto 610 m
2021/02/25 16:00 LEXJ 251600Z 29006KT 260V320 9999 SCT009 OVC020 13/12 Q1029
LEAS - Asturias/Aviles, Spain
Distance from station: NO 214km
Actualización: Thu, 25-Feb-2021 5:00pm CET
Light drizzle, Muy nuboso
Light drizzle, Muy nuboso
 Viento del ONO
Viento: ONO 6 km/h
Temperatura: 10°C
Rocío: 9°C
Humedad: 94%
Barómetro: 1030 hPa
Resumen: Light Drizzle
Clouds: Muy nuboso
Visibility: 2 km
Cloud details: Few Clouds 30 m
Muy nuboso 152 m
2021/02/25 16:00 LEAS 251600Z 30003KT 1900 0700NW R29/1900N R11/0400N -DZ FEW001 BKN005 10/09 Q1030 NOSIG
 
LECO - La Coruna/Alvedr, Spain
Distance from station: ONO 222km
Actualización: Thu, 25-Feb-2021 5:00pm CET
Parcialmente nuboso
Parcialmente nuboso
 Viento del N
Viento: N 13 km/h
Temperatura: 11°C
Rocío: 10°C
Humedad: 94%
Barómetro: 1029 hPa
Clouds: Parcialmente nuboso
Visibility: 10 km
Cloud details: Parcialmente nuboso 518 m
Parcialmente nuboso 1463 m
2021/02/25 16:00 LECO 251600Z 36007KT 320V050 9999 SCT017 SCT048 11/10 Q1029 TEMPO BKN010
LEVX - Vigo/Peinador, Spain
Distance from station: O 214km
Actualización: Thu, 25-Feb-2021 5:00pm CET
Muy nuboso
Muy nuboso
 Viento del NNE
Viento: NNE 13 km/h
Temperatura: 11°C
Rocío: 7°C
Humedad: 77%
Barómetro: 1027 hPa
Clouds: Muy nuboso
Visibility: 10 km
Cloud details: Muy nuboso 975 m
Muy nuboso 1250 m
2021/02/25 16:00 LEVX 251600Z 02007KT 350V080 9999 BKN032 BKN041 11/07 Q1027 NOSIG